Time;durP1;ratioP1;P1;durP2;ratioP2;P2;SDS_P1;SDS_P2;PMS_P1;PMS_P2;Temp;Humidity;BMP_temperature;BMP_pressure;BME280_temperature;BME280_humidity;BME280_pressure;Samples;Min_cycle;Max_cycle;Signal;HPM_P1;HPM_P2
2021/11/03 00:02:56;;;;;;;;;;;4.80;99.90;;;3.35;100.00;94457.38;10556713;28;1909;-81
2021/11/03 00:07:58;;;;;;;;;;;4.80;99.90;;;3.39;100.00;94442.53;10556809;28;1934;-81
2021/11/03 00:13:01;;;;;;;;;;;4.70;99.90;;;3.27;100.00;94444.59;10536870;28;1702;-78
2021/11/03 00:18:04;;;;;;;;;;;4.60;99.90;;;3.32;100.00;94449.13;10562626;28;1891;-78
2021/11/03 00:23:07;;;;;;;;;;;4.60;99.90;;;3.38;100.00;94440.13;10555500;28;1778;-79
2021/11/03 00:28:12;;;;;;;;;;;4.60;99.90;;;3.35;100.00;94435.31;10554548;28;1795;-78
2021/11/03 00:33:15;;;;;;;;;;;4.60;99.90;;;3.41;100.00;94413.81;10560394;28;1879;-78
2021/11/03 00:38:18;;;;;;;;;;;4.60;99.90;;;3.33;100.00;94402.94;10542694;28;1886;-79
2021/11/03 00:43:20;;;;;;;;;;;4.60;99.90;;;3.24;100.00;94397.31;10555589;28;1856;-79
2021/11/03 00:48:23;;;;;;;;;;;4.50;99.90;;;3.19;100.00;94376.88;10541341;28;1582;-76
2021/11/03 00:53:26;;;;;;;;;;;4.50;99.90;;;3.20;100.00;94365.19;10540999;28;1966;-77
2021/11/03 00:58:29;;;;;;;;;;;4.60;99.90;;;3.20;100.00;94365.19;10559824;28;1906;-81
2021/11/03 01:03:32;;;;;;;;;;;4.40;99.90;;;3.13;100.00;94363.84;10560298;28;1974;-79
2021/11/03 01:08:35;;;;;;;;;;;4.50;99.90;;;3.16;100.00;94364.09;10535263;28;1714;-80
2021/11/03 01:13:38;;;;;;;;;;;4.40;99.90;;;3.10;100.00;94357.16;10554025;28;1820;-79
2021/11/03 01:18:41;;;;;;;;;;;4.40;99.90;;;3.17;100.00;94368.34;10556425;28;1962;-79
2021/11/03 01:23:43;;;;;;;;;;;4.40;99.90;;;3.05;100.00;94362.47;10555186;28;1829;-81
2021/11/03 01:28:46;;;;;;;;;;;4.40;99.90;;;2.99;100.00;94366.19;10558233;28;2356;-79
2021/11/03 01:33:50;;;;;;;;;;;4.30;99.90;;;3.02;100.00;94363.00;10583714;28;1969;-78
2021/11/03 01:38:53;;;;;;;;;;;4.30;99.90;;;2.89;100.00;94366.13;10580098;28;2063;-77
2021/11/03 01:43:56;;;;;;;;;;;4.20;99.90;;;2.80;100.00;94354.41;10570164;28;2093;-79
2021/11/03 01:48:59;;;;;;;;;;;4.20;99.90;;;2.76;100.00;94342.72;10560796;28;1821;-79
2021/11/03 01:54:02;;;;;;;;;;;4.10;99.90;;;2.79;100.00;94337.69;10562646;28;2131;-80
2021/11/03 01:59:05;;;;;;;;;;;4.10;99.90;;;2.76;100.00;94330.25;10569143;28;2103;-81
2021/11/03 02:04:08;;;;;;;;;;;4.10;99.90;;;2.74;100.00;94321.78;10559060;28;2135;-79
2021/11/03 02:09:11;;;;;;;;;;;4.20;99.90;;;2.70;100.00;94318.03;10556404;28;2092;-78
2021/11/03 02:14:34;;;;;;;;;;;4.10;99.90;;;2.67;100.00;94292.81;10574399;28;2020;-79
2021/11/03 02:19:56;;;;;;;;;;;4.00;99.90;;;2.75;100.00;94283.56;10564495;28;2108;-79
2021/11/03 02:25:19;;;;;;;;;;;4.00;99.90;;;2.67;100.00;94282.22;10563334;28;2060;-79
2021/11/03 02:30:23;;;;;;;;;;;4.10;99.90;;;2.54;100.00;94274.72;10551490;28;2127;-80
2021/11/03 02:35:26;;;;;;;;;;;3.90;99.90;;;2.58;100.00;94278.44;10564083;28;1811;-81
2021/11/03 02:40:49;;;;;;;;;;;3.90;99.90;;;2.57;100.00;94276.88;10562022;28;1977;-78
2021/11/03 02:45:57;;;;;;;;;;;3.90;99.90;;;2.52;100.00;94271.53;10553692;28;1737;-79
2021/11/03 02:51:00;;;;;;;;;;;3.90;99.90;;;2.54;100.00;94261.44;10577672;28;2017;-78
2021/11/03 02:56:03;;;;;;;;;;;3.80;99.90;;;2.39;100.00;94254.25;10575456;28;2000;-77
2021/11/03 03:01:06;;;;;;;;;;;3.80;99.90;;;2.39;100.00;94237.53;10561416;28;1950;-78
2021/11/03 03:06:10;;;;;;;;;;;3.70;99.90;;;2.27;100.00;94247.56;10575371;28;1946;-78
2021/11/03 03:11:12;;;;;;;;;;;3.60;99.90;;;2.26;100.00;94235.38;10570589;28;1961;-77
2021/11/03 03:16:15;;;;;;;;;;;3.60;99.90;;;2.25;100.00;94212.56;10552991;28;1997;-79
2021/11/03 03:21:18;;;;;;;;;;;3.50;99.90;;;2.37;100.00;94191.94;10576086;28;2207;-78
2021/11/03 03:26:28;;;;;;;;;;;3.60;99.90;;;2.31;100.00;94204.38;10572125;28;1981;-78
2021/11/03 03:31:31;;;;;;;;;;;3.60;99.90;;;2.38;100.00;94198.81;10563866;28;1728;-78
2021/11/03 03:36:34;;;;;;;;;;;3.70;99.90;;;2.39;100.00;94205.72;10576791;28;2009;-78
2021/11/03 03:41:37;;;;;;;;;;;3.60;99.90;;;2.46;100.00;94211.56;10570167;28;1957;-78
2021/11/03 03:46:39;;;;;;;;;;;3.70;99.90;;;2.52;100.00;94212.38;10572181;28;1701;-78
2021/11/03 03:51:42;;;;;;;;;;;3.70;99.90;;;2.42;100.00;94227.22;10558606;28;1672;-78
2021/11/03 03:56:45;;;;;;;;;;;3.70;99.90;;;2.23;100.00;94220.78;10564114;28;1937;-78
2021/11/03 04:01:48;;;;;;;;;;;3.70;99.90;;;2.33;100.00;94228.75;10565454;28;2098;-81
2021/11/03 04:06:51;;;;;;;;;;;3.60;99.90;;;2.33;100.00;94209.41;10555457;28;2083;-78
2021/11/03 04:11:54;;;;;;;;;;;3.60;99.90;;;2.32;100.00;94210.47;10537700;28;2090;-79
2021/11/03 04:16:59;;;;;;;;;;;3.60;99.90;;;2.39;100.00;94216.31;10550532;28;1680;-79
2021/11/03 04:22:02;;;;;;;;;;;3.60;99.90;;;2.35;100.00;94209.94;10551403;28;2032;-80
2021/11/03 04:27:05;;;;;;;;;;;3.60;99.90;;;2.37;100.00;94197.22;10559829;28;1661;-78
2021/11/03 04:32:08;;;;;;;;;;;3.60;99.90;;;2.45;100.00;94199.38;10574666;28;1914;-80
2021/11/03 04:37:11;;;;;;;;;;;3.60;99.90;;;2.34;100.00;94192.44;10547026;28;2109;-79
2021/11/03 04:42:14;;;;;;;;;;;3.60;99.90;;;2.43;100.00;94181.06;10571731;28;1888;-78
2021/11/03 04:47:17;;;;;;;;;;;3.60;99.90;;;2.47;100.00;94173.38;10558980;28;1985;-79
2021/11/03 04:52:20;;;;;;;;;;;3.60;99.90;;;2.45;100.00;94167.53;10553328;28;2412;-79
2021/11/03 04:57:23;;;;;;;;;;;3.70;99.90;;;2.42;100.00;94168.09;10538952;28;1737;-80
2021/11/03 05:02:26;;;;;;;;;;;3.70;99.90;;;2.42;100.00;94162.78;10535230;28;2046;-79
2021/11/03 05:07:29;;;;;;;;;;;3.70;99.90;;;2.46;100.00;94149.78;10555488;28;2004;-78
2021/11/03 05:12:32;;;;;;;;;;;3.60;99.90;;;2.50;100.00;94158.81;10561754;28;1942;-79
2021/11/03 05:17:36;;;;;;;;;;;3.70;99.90;;;2.47;100.00;94149.50;10573576;28;2044;-78
2021/11/03 05:22:39;;;;;;;;;;;3.70;99.90;;;2.39;100.00;94152.69;10568310;28;2170;-79
2021/11/03 05:27:42;;;;;;;;;;;3.60;99.90;;;2.44;100.00;94145.53;10530809;28;2061;-79
2021/11/03 05:32:45;;;;;;;;;;;3.60;99.90;;;2.36;100.00;94143.41;10522097;28;2006;-79
2021/11/03 05:37:48;;;;;;;;;;;3.60;99.90;;;2.34;100.00;94147.34;10538150;28;2084;-79
2021/11/03 05:42:51;;;;;;;;;;;3.60;99.90;;;2.32;100.00;94142.31;10532251;28;2083;-79
2021/11/03 05:47:54;;;;;;;;;;;3.60;99.90;;;2.39;100.00;94142.06;10533327;28;2004;-79
2021/11/03 05:52:57;;;;;;;;;;;3.60;99.90;;;2.43;100.00;94140.50;10539512;28;2139;-79
2021/11/03 05:58:00;;;;;;;;;;;3.70;99.90;;;2.45;100.00;94141.03;10532129;28;1988;-79
2021/11/03 06:03:03;;;;;;;;;;;3.60;99.90;;;2.42;100.00;94138.91;10545930;28;1899;-79
2021/11/03 06:08:06;;;;;;;;;;;3.60;99.90;;;2.31;100.00;94137.28;10545386;28;1749;-80
2021/11/03 06:13:09;;;;;;;;;;;3.50;99.90;;;2.25;100.00;94138.34;10540928;28;1955;-79
2021/11/03 06:18:11;;;;;;;;;;;3.50;99.90;;;2.31;100.00;94124.81;10540050;28;1940;-79
2021/11/03 06:23:14;;;;;;;;;;;3.50;99.90;;;2.15;100.00;94113.38;10548839;28;2156;-80
2021/11/03 06:28:17;;;;;;;;;;;3.40;99.90;;;2.19;100.00;94116.31;10528144;28;1863;-79
2021/11/03 06:33:20;;;;;;;;;;;3.40;99.90;;;2.37;100.00;94118.47;10546091;28;1942;-80
2021/11/03 06:38:23;;;;;;;;;;;3.50;99.90;;;2.33;100.00;94127.19;10539555;28;1916;-79
2021/11/03 06:43:27;;;;;;;;;;;3.50;99.90;;;2.40;100.00;94122.44;10550835;28;1978;-80
2021/11/03 06:48:30;;;;;;;;;;;3.50;99.90;;;2.29;100.00;94116.34;10534717;28;1810;-76
2021/11/03 06:53:33;;;;;;;;;;;3.60;99.90;;;2.41;100.00;94122.16;10520485;28;1879;-73
2021/11/03 06:58:37;;;;;;;;;;;3.50;99.90;;;2.39;100.00;94115.56;10526494;28;1898;-78
2021/11/03 07:03:41;;;;;;;;;;;3.60;99.90;;;2.39;100.00;94110.25;10534878;28;1928;-78
2021/11/03 07:08:46;;;;;;;;;;;3.50;99.90;;;2.62;100.00;94101.78;10522469;28;1817;-77
2021/11/03 07:13:49;;;;;;;;;;;3.60;99.90;;;2.66;100.00;94100.19;10527872;28;1949;-76
2021/11/03 07:18:52;;;;;;;;;;;3.70;99.90;;;2.85;100.00;94097.81;10531095;28;1915;-77
2021/11/03 07:23:55;;;;;;;;;;;3.80;99.90;;;2.97;100.00;94095.69;10526190;28;2431;-75
2021/11/03 07:28:58;;;;;;;;;;;4.00;99.90;;;3.06;100.00;94090.63;10518396;28;1952;-74
2021/11/03 07:34:01;;;;;;;;;;;4.10;99.90;;;3.18;100.00;94088.50;10520274;28;1831;-77
2021/11/03 07:39:04;;;;;;;;;;;4.20;99.90;;;3.35;100.00;94079.44;10520535;28;1961;-74
2021/11/03 07:44:13;;;;;;;;;;;4.40;99.90;;;3.48;100.00;94078.84;10520088;28;1826;-74
2021/11/03 07:49:16;;;;;;;;;;;4.50;99.90;;;3.48;100.00;94074.34;10516556;28;1743;-74
2021/11/03 07:54:19;;;;;;;;;;;4.60;99.90;;;3.72;100.00;94055.13;10522368;28;1827;-74
2021/11/03 07:59:22;;;;;;;;;;;4.70;99.90;;;3.97;100.00;94073.63;10519590;28;1976;-77
2021/11/03 08:04:25;;;;;;;;;;;4.80;99.90;;;3.90;100.00;94064.34;10516105;28;1965;-75
2021/11/03 08:09:28;;;;;;;;;;;5.00;99.90;;;4.09;100.00;94057.34;10508242;28;1918;-75
2021/11/03 08:14:31;;;;;;;;;;;5.10;99.90;;;3.95;100.00;94073.09;10513141;28;1831;-75
2021/11/03 08:19:35;;;;;;;;;;;5.10;99.90;;;4.14;100.00;94069.81;10519873;28;1965;-75
2021/11/03 08:24:39;;;;;;;;;;;5.20;99.90;;;4.26;100.00;94057.78;10503009;28;1961;-75
2021/11/03 08:29:42;;;;;;;;;;;5.30;99.90;;;4.34;100.00;94061.72;10515576;28;1990;-75
2021/11/03 08:34:45;;;;;;;;;;;5.30;99.90;;;4.58;100.00;94059.13;10512115;28;1926;-76
2021/11/03 08:39:47;;;;;;;;;;;5.50;99.90;;;4.81;100.00;94055.75;10516813;28;2080;-74
2021/11/03 08:44:50;;;;;;;;;;;5.70;99.90;;;5.32;98.33;94055.28;10515901;28;1883;-77
2021/11/03 08:49:54;;;;;;;;;;;6.00;99.90;;;5.66;96.50;94046.38;10511376;28;1954;-75
2021/11/03 08:54:57;;;;;;;;;;;6.50;99.90;;;5.90;94.28;94039.16;10518899;28;1875;-75
2021/11/03 09:00:02;;;;;;;;;;;6.80;99.90;;;6.29;93.26;94040.81;10506562;28;2355;-75
2021/11/03 09:05:05;;;;;;;;;;;7.00;99.90;;;6.23;93.32;94028.63;10510850;28;1948;-76
2021/11/03 09:10:08;;;;;;;;;;;7.20;99.90;;;6.40;91.41;94012.09;10497795;28;1335;-76
2021/11/03 09:15:11;;;;;;;;;;;7.30;99.90;;;6.18;91.92;94015.38;10509263;28;1931;-76
2021/11/03 09:20:14;;;;;;;;;;;7.40;99.90;;;6.40;90.72;94007.56;10515041;28;2200;-76
2021/11/03 09:25:17;;;;;;;;;;;7.40;99.90;;;6.64;89.78;93996.00;10507244;28;1899;-76
2021/11/03 09:30:25;;;;;;;;;;;7.60;99.90;;;6.76;89.12;93983.75;10506253;28;1906;-76
2021/11/03 09:35:28;;;;;;;;;;;7.70;99.90;;;6.55;90.22;93973.69;10521403;28;1895;-75
2021/11/03 09:40:31;;;;;;;;;;;7.70;99.90;;;6.80;90.16;93980.50;10507209;28;1898;-76
2021/11/03 09:45:34;;;;;;;;;;;7.70;99.90;;;6.97;89.10;93962.81;10510833;28;1899;-75
2021/11/03 09:50:37;;;;;;;;;;;7.90;99.90;;;7.29;87.55;93977.22;10519000;28;1875;-75
2021/11/03 09:55:40;;;;;;;;;;;8.10;99.90;;;7.36;86.77;93974.94;10522837;28;2075;-75
2021/11/03 10:00:42;;;;;;;;;;;8.30;99.90;;;7.36;86.82;93966.91;10525467;28;1980;-76
2021/11/03 10:05:46;;;;;;;;;;;8.30;99.90;;;7.41;86.73;93948.09;10516752;28;1942;-76
2021/11/03 10:10:48;;;;;;;;;;;8.40;99.90;;;7.63;86.35;93962.63;10523298;28;1938;-75
2021/11/03 10:15:51;;;;;;;;;;;8.40;99.90;;;7.54;83.83;93959.88;10521341;28;1762;-76
2021/11/03 10:20:54;;;;;;;;;;;8.60;99.90;;;7.71;84.03;93953.94;10512890;28;1989;-76
2021/11/03 10:25:57;;;;;;;;;;;8.60;99.90;;;7.80;82.55;93952.13;10524466;28;1933;-75
2021/11/03 10:31:00;;;;;;;;;;;8.90;99.90;;;7.85;83.01;93935.97;10506010;28;2384;-75
2021/11/03 10:36:03;;;;;;;;;;;8.90;99.90;;;7.84;82.60;93931.72;10519794;28;1887;-75
2021/11/03 10:41:06;;;;;;;;;;;8.90;99.90;;;7.80;82.15;93917.34;10516408;28;1976;-76
2021/11/03 10:46:09;;;;;;;;;;;8.80;99.90;;;7.75;82.23;93901.41;10506972;28;2045;-75
2021/11/03 10:51:12;;;;;;;;;;;8.80;99.90;;;7.82;82.50;93915.97;10545445;28;1884;-75
2021/11/03 10:56:15;;;;;;;;;;;8.80;99.90;;;7.91;82.06;93917.94;10549899;28;1801;-75
2021/11/03 11:01:18;;;;;;;;;;;8.90;99.90;;;7.85;82.65;93917.25;10571474;28;1961;-76
2021/11/03 11:06:21;;;;;;;;;;;8.90;99.90;;;8.01;82.72;93925.72;10559995;28;1871;-75
2021/11/03 11:11:26;;;;;;;;;;;8.90;99.90;;;8.07;81.72;93925.28;10567135;28;1606;-75
2021/11/03 11:16:29;;;;;;;;;;;9.10;99.90;;;7.96;82.75;93913.25;10557044;28;1887;-75
2021/11/03 11:21:32;;;;;;;;;;;9.10;99.90;;;7.93;84.03;93913.84;10547113;28;1909;-75
2021/11/03 11:26:37;;;;;;;;;;;9.00;99.90;;;8.04;83.50;93901.03;10524544;28;1843;-74
2021/11/03 11:31:40;;;;;;;;;;;9.00;99.90;;;8.01;82.08;93867.63;10535808;28;1915;-75
2021/11/03 11:36:43;;;;;;;;;;;9.00;99.90;;;7.93;82.62;93870.25;10521257;28;1931;-75
2021/11/03 11:41:46;;;;;;;;;;;9.00;99.90;;;7.94;84.08;93875.28;10535696;28;2005;-76
2021/11/03 11:46:49;;;;;;;;;;;9.00;99.90;;;8.04;82.38;93872.41;10522882;28;1938;-75
2021/11/03 11:51:52;;;;;;;;;;;9.10;99.90;;;8.09;81.84;93866.94;10516295;28;1954;-78
2021/11/03 11:56:54;;;;;;;;;;;9.10;99.90;;;8.16;81.64;93865.72;10517776;28;1906;-77
2021/11/03 12:01:57;;;;;;;;;;;9.20;99.90;;;7.99;83.67;93875.19;10524968;28;1918;-77
2021/11/03 12:07:01;;;;;;;;;;;9.10;99.90;;;8.17;82.15;93857.38;10521905;28;1875;-77
2021/11/03 12:12:03;;;;;;;;;;;9.20;99.90;;;8.26;81.01;93852.84;10499914;28;1906;-76
2021/11/03 12:17:06;;;;;;;;;;;9.30;99.90;;;8.33;82.14;93841.72;10508140;28;1789;-76
2021/11/03 12:22:10;;;;;;;;;;;9.30;99.90;;;8.42;80.72;93836.47;10524684;28;1985;-76
2021/11/03 12:27:13;;;;;;;;;;;9.40;99.90;;;8.41;82.25;93827.63;10501926;28;1947;-75
2021/11/03 12:32:16;;;;;;;;;;;9.40;99.90;;;8.60;79.36;93832.78;10535737;28;2213;-75
2021/11/03 12:37:19;;;;;;;;;;;9.60;99.90;;;8.61;79.93;93811.03;10524760;28;1932;-76
2021/11/03 12:42:22;;;;;;;;;;;9.60;99.90;;;8.60;79.84;93800.63;10520262;28;1956;-74
2021/11/03 12:47:25;;;;;;;;;;;9.60;99.90;;;8.73;78.99;93790.91;10515183;28;1899;-76
2021/11/03 12:52:28;;;;;;;;;;;9.70;99.90;;;8.66;79.09;93797.50;10518278;28;1887;-76
2021/11/03 12:57:31;;;;;;;;;;;9.70;99.90;;;8.92;78.73;93784.19;10526675;28;1903;-76
2021/11/03 13:02:34;;;;;;;;;;;9.80;99.90;;;8.94;79.30;93782.00;10508977;28;1918;-76
2021/11/03 13:07:37;;;;;;;;;;;9.90;99.90;;;8.72;80.55;93759.88;10518258;28;1836;-74
2021/11/03 13:12:40;;;;;;;;;;;9.90;99.90;;;8.71;84.11;93769.00;10524858;28;1856;-75
2021/11/03 13:17:43;;;;;;;;;;;9.80;99.90;;;8.66;84.51;93781.44;10521847;28;1703;-75
2021/11/03 13:22:45;;;;;;;;;;;9.80;99.90;;;8.48;86.95;93795.84;10517190;28;1984;-75
2021/11/03 13:27:48;;;;;;;;;;;9.70;99.90;;;8.51;89.22;93794.44;10527527;28;1699;-73
2021/11/03 13:32:52;;;;;;;;;;;9.60;99.90;;;8.66;86.95;93794.84;10528281;28;1861;-74
2021/11/03 13:37:55;;;;;;;;;;;9.70;99.90;;;8.69;87.20;93785.38;10524123;28;1855;-74
2021/11/03 13:42:58;;;;;;;;;;;9.70;99.90;;;8.70;87.36;93780.81;10524459;28;1973;-75
2021/11/03 13:48:00;;;;;;;;;;;9.70;99.90;;;8.50;88.02;93800.91;10507480;28;1857;-75
2021/11/03 13:53:13;;;;;;;;;;;9.60;99.90;;;8.56;87.75;93789.75;10512290;28;1968;-75
2021/11/03 13:58:16;;;;;;;;;;;9.60;99.90;;;8.51;89.02;93808.63;10532841;28;1494;-75
2021/11/03 14:03:19;;;;;;;;;;;9.60;99.90;;;8.86;87.19;93846.28;10505729;28;2065;-75
2021/11/03 14:08:33;;;;;;;;;;;9.70;99.90;;;8.99;86.33;93849.94;10532016;28;1136;-75
2021/11/03 14:13:56;;;;;;;;;;;9.90;99.90;;;8.95;86.15;93873.88;10520444;28;1926;-74
2021/11/03 14:18:58;;;;;;;;;;;9.90;99.90;;;8.74;89.15;93872.84;10515969;28;1879;-73
2021/11/03 14:24:01;;;;;;;;;;;9.80;99.90;;;8.25;93.00;93874.56;10524376;28;1971;-75
2021/11/03 14:29:05;;;;;;;;;;;9.50;99.90;;;7.88;95.75;93900.56;10521683;28;1946;-75
2021/11/03 14:34:08;;;;;;;;;;;9.10;99.90;;;7.56;96.56;93902.34;10522318;28;1855;-75
2021/11/03 14:39:10;;;;;;;;;;;8.80;99.90;;;7.27;99.38;93917.94;10520286;28;1919;-75
2021/11/03 14:44:13;;;;;;;;;;;8.50;99.90;;;7.21;99.41;93916.44;10525898;28;1995;-75
2021/11/03 14:49:16;;;;;;;;;;;8.30;99.90;;;7.11;100.00;93903.28;10514255;28;1916;-75
2021/11/03 14:54:19;;;;;;;;;;;8.30;99.90;;;7.12;99.99;93929.69;10524784;28;1861;-75
2021/11/03 14:59:22;;;;;;;;;;;8.20;99.90;;;7.15;100.00;93933.66;10523516;28;2431;-75
2021/11/03 15:04:26;;;;;;;;;;;8.20;99.90;;;7.08;99.19;93941.28;10516505;28;2392;-76
2021/11/03 15:09:29;;;;;;;;;;;8.20;99.90;;;7.03;99.50;93942.94;10520327;28;1950;-76
2021/11/03 15:14:32;;;;;;;;;;;8.10;99.90;;;6.88;98.83;93942.44;10523763;28;1930;-74
2021/11/03 15:19:35;;;;;;;;;;;8.00;99.90;;;6.81;99.30;93942.84;10522574;28;1951;-73
2021/11/03 15:24:38;;;;;;;;;;;7.90;99.90;;;6.72;100.00;93939.25;10518875;28;2177;-74
2021/11/03 15:29:41;;;;;;;;;;;7.80;99.90;;;6.67;100.00;93950.00;10528214;28;1938;-74
2021/11/03 15:34:44;;;;;;;;;;;7.60;99.90;;;6.61;100.00;93941.28;10532084;28;1911;-74
2021/11/03 15:39:47;;;;;;;;;;;7.70;99.90;;;6.61;100.00;93940.50;10536104;28;1843;-74
2021/11/03 15:44:50;;;;;;;;;;;7.70;99.90;;;6.52;100.00;93955.59;10522436;28;1969;-77
2021/11/03 15:49:53;;;;;;;;;;;7.60;99.90;;;6.54;100.00;93958.78;10523663;28;1764;-75
2021/11/03 15:54:56;;;;;;;;;;;7.60;99.90;;;6.51;100.00;93960.16;10519789;28;1927;-75
2021/11/03 16:00:19;;;;;;;;;;;7.60;99.90;;;6.55;100.00;93977.16;10525027;28;1909;-76
2021/11/03 16:05:21;;;;;;;;;;;7.60;99.90;;;6.64;100.00;93982.63;10510808;28;1973;-75
2021/11/03 16:10:24;;;;;;;;;;;7.60;99.90;;;6.71;100.00;93999.06;10512803;28;1912;-75
2021/11/03 16:15:27;;;;;;;;;;;7.70;99.90;;;6.68;100.00;94010.31;10527965;28;1790;-74
2021/11/03 16:20:30;;;;;;;;;;;7.70;99.90;;;6.71;100.00;94031.13;10524492;28;1955;-74
2021/11/03 16:25:33;;;;;;;;;;;7.80;99.90;;;6.75;100.00;94034.81;10514691;28;1879;-75
2021/11/03 16:30:36;;;;;;;;;;;7.70;99.90;;;6.77;100.00;94043.31;10522353;28;1899;-76
2021/11/03 16:35:39;;;;;;;;;;;7.80;99.90;;;6.77;100.00;94049.44;10533296;28;1929;-77
2021/11/03 16:40:41;;;;;;;;;;;7.90;99.90;;;6.74;100.00;94062.56;10522829;28;2549;-73
2021/11/03 16:45:45;;;;;;;;;;;7.80;99.90;;;6.79;100.00;94067.84;10518904;28;1938;-73
2021/11/03 16:50:51;;;;;;;;;;;7.90;99.90;;;6.76;100.00;94061.22;10538965;28;1899;-74
2021/11/03 16:56:00;;;;;;;;;;;7.80;99.90;;;6.78;100.00;94072.38;10530678;28;1915;-75
2021/11/03 17:01:04;;;;;;;;;;;7.80;99.90;;;6.75;100.00;94064.19;10532424;28;1898;-74
2021/11/03 17:06:08;;;;;;;;;;;7.80;99.90;;;6.78;100.00;94055.56;10536000;28;1951;-73
2021/11/03 17:11:18;;;;;;;;;;;7.90;99.90;;;6.81;100.00;94065.69;10524337;28;1956;-74
2021/11/03 17:16:21;;;;;;;;;;;7.80;99.90;;;6.82;100.00;94099.31;10540000;28;1888;-74
2021/11/03 17:21:24;;;;;;;;;;;7.80;99.90;;;6.94;100.00;94107.69;10535162;28;1930;-74
2021/11/03 17:26:29;;;;;;;;;;;7.90;99.90;;;7.00;100.00;94111.84;10538172;28;1966;-73
2021/11/03 17:31:33;;;;;;;;;;;8.00;99.90;;;7.01;100.00;94118.78;10548411;28;1875;-73
2021/11/03 17:36:36;;;;;;;;;;;8.00;99.90;;;7.05;100.00;94127.78;10543165;28;1867;-73
2021/11/03 17:41:40;;;;;;;;;;;8.10;99.90;;;7.18;100.00;94138.81;10559641;28;1947;-75
2021/11/03 17:46:43;;;;;;;;;;;8.20;99.90;;;7.08;100.00;94136.31;10554102;28;1822;-75
2021/11/03 17:51:46;;;;;;;;;;;8.20;99.90;;;7.11;100.00;94128.50;10529082;28;1892;-73
2021/11/03 17:56:49;;;;;;;;;;;8.20;99.90;;;7.05;100.00;94130.44;10526188;28;2280;-74
2021/11/03 18:01:53;;;;;;;;;;;8.10;99.90;;;7.03;100.00;94137.97;10509952;28;2067;-73
2021/11/03 18:06:56;;;;;;;;;;;8.10;99.90;;;6.99;100.00;94147.66;10516085;28;1992;-73
2021/11/03 18:11:59;;;;;;;;;;;8.10;99.90;;;7.01;100.00;94150.84;10521347;28;1914;-73
2021/11/03 18:17:01;;;;;;;;;;;8.10;99.90;;;6.97;100.00;94157.84;10527187;28;2035;-74
2021/11/03 18:22:04;;;;;;;;;;;8.10;99.90;;;6.94;100.00;94150.41;10530313;28;1922;-74
2021/11/03 18:27:07;;;;;;;;;;;8.10;99.90;;;7.04;100.00;94155.59;10529040;28;1942;-74
2021/11/03 18:32:10;;;;;;;;;;;8.00;99.90;;;7.02;100.00;94148.97;10534215;28;1911;-74
2021/11/03 18:37:14;;;;;;;;;;;8.00;99.90;;;6.99;100.00;94150.31;10525412;28;1930;-75
2021/11/03 18:42:17;;;;;;;;;;;8.10;99.90;;;6.94;100.00;94166.44;10522769;28;1910;-75
2021/11/03 18:47:20;;;;;;;;;;;8.00;99.90;;;6.88;100.00;94151.56;10514994;28;2244;-74
2021/11/03 18:52:23;;;;;;;;;;;8.00;99.90;;;6.90;100.00;94165.44;10529276;28;2011;-74
2021/11/03 18:57:26;;;;;;;;;;;8.00;99.90;;;6.93;100.00;94156.81;10517598;28;2065;-75
2021/11/03 19:02:49;;;;;;;;;;;8.00;99.90;;;6.84;100.00;94165.78;10514600;28;2098;-74
2021/11/03 19:08:12;;;;;;;;;;;8.00;99.90;;;6.66;100.00;94172.69;10521212;28;1963;-74
2021/11/03 19:13:35;;;;;;;;;;;7.80;99.90;;;6.59;100.00;94174.94;10520603;28;1824;-74
2021/11/03 19:18:58;;;;;;;;;;;7.70;99.90;;;6.58;100.00;94189.38;10515296;28;1820;-75
2021/11/03 19:24:21;;;;;;;;;;;7.60;99.90;;;6.43;100.00;94193.03;10526968;28;1976;-73
2021/11/03 19:29:43;;;;;;;;;;;7.60;99.90;;;6.35;100.00;94191.78;10529015;28;1852;-73
2021/11/03 19:35:06;;;;;;;;;;;7.50;99.90;;;6.34;100.00;94189.41;10524768;28;1922;-74
2021/11/03 19:40:30;;;;;;;;;;;7.40;99.90;;;6.25;100.00;94199.13;10521863;28;1750;-73
2021/11/03 19:45:53;;;;;;;;;;;7.40;99.90;;;6.12;100.00;94198.72;10525251;28;1967;-73
2021/11/03 19:51:15;;;;;;;;;;;7.30;99.90;;;6.05;100.00;94197.47;10516979;28;1904;-74
2021/11/03 19:56:38;;;;;;;;;;;7.20;99.90;;;6.01;100.00;94199.09;10514876;28;1945;-75
2021/11/03 20:02:01;;;;;;;;;;;7.10;99.90;;;5.99;100.00;94210.06;10507717;28;1946;-75
2021/11/03 20:07:04;;;;;;;;;;;7.10;99.90;;;5.96;100.00;94223.94;10514256;28;1927;-74
2021/11/03 20:12:07;;;;;;;;;;;7.00;99.90;;;5.82;100.00;94215.00;10512080;28;1950;-74
2021/11/03 20:17:12;;;;;;;;;;;7.00;99.90;;;5.70;100.00;94205.50;10509168;28;1930;-74
2021/11/03 20:22:15;;;;;;;;;;;6.90;99.90;;;5.72;100.00;94205.22;10525026;28;1953;-73
2021/11/03 20:27:19;;;;;;;;;;;6.80;99.90;;;5.70;100.00;94202.03;10519248;28;1868;-75
2021/11/03 20:32:22;;;;;;;;;;;6.80;99.90;;;5.72;100.00;94205.22;10521467;28;1990;-74
2021/11/03 20:37:25;;;;;;;;;;;6.80;99.90;;;5.76;100.00;94195.59;10520189;28;1848;-75
2021/11/03 20:42:28;;;;;;;;;;;6.80;99.90;;;5.76;100.00;94208.91;10516651;28;1982;-74
2021/11/03 20:47:31;;;;;;;;;;;6.80;99.90;;;5.79;100.00;94200.38;10510472;28;1898;-73
2021/11/03 20:52:39;;;;;;;;;;;6.80;99.90;;;5.82;100.00;94189.13;10508753;28;1455;-75
2021/11/03 20:57:42;;;;;;;;;;;6.90;99.90;;;5.88;100.00;94190.66;10503911;28;1873;-73
2021/11/03 21:02:45;;;;;;;;;;;6.90;99.90;;;5.91;100.00;94197.31;10510329;28;1956;-74
2021/11/03 21:07:48;;;;;;;;;;;7.00;99.90;;;5.96;100.00;94194.63;10515867;28;1896;-74
2021/11/03 21:12:51;;;;;;;;;;;7.00;99.90;;;5.94;100.00;94208.25;10508384;28;1839;-75
2021/11/03 21:17:54;;;;;;;;;;;7.00;99.90;;;5.93;100.00;94228.00;10516715;28;1836;-74
2021/11/03 21:22:57;;;;;;;;;;;7.00;99.90;;;5.88;100.00;94216.53;10511467;28;1950;-73
2021/11/03 21:28:00;;;;;;;;;;;7.00;99.90;;;5.86;100.00;94211.50;10522759;28;1864;-74
2021/11/03 21:33:03;;;;;;;;;;;7.00;99.90;;;5.85;100.00;94220.59;10515737;28;1879;-75
2021/11/03 21:38:06;;;;;;;;;;;7.00;99.90;;;5.87;100.00;94225.63;10521204;28;1875;-74
2021/11/03 21:43:09;;;;;;;;;;;6.90;99.90;;;5.84;100.00;94216.28;10506576;28;1918;-75
2021/11/03 21:48:11;;;;;;;;;;;6.90;99.90;;;5.88;100.00;94196.00;10513837;28;1852;-73
2021/11/03 21:53:14;;;;;;;;;;;6.90;99.90;;;5.86;100.00;94184.84;10499196;28;1879;-73
2021/11/03 21:58:17;;;;;;;;;;;6.90;99.90;;;5.85;100.00;94183.25;10525395;28;1821;-72
2021/11/03 22:03:22;;;;;;;;;;;6.90;99.90;;;5.84;100.00;94183.50;10522715;28;1951;-73
2021/11/03 22:08:25;;;;;;;;;;;6.90;99.90;;;5.78;100.00;94174.75;10527101;28;2378;-74
2021/11/03 22:13:29;;;;;;;;;;;6.90;99.90;;;5.82;100.00;94178.47;10535641;28;1868;-73
2021/11/03 22:18:32;;;;;;;;;;;6.90;99.90;;;5.86;100.00;94184.84;10536267;28;1879;-74
2021/11/03 22:23:35;;;;;;;;;;;6.90;99.90;;;5.85;100.00;94188.59;10538100;28;1977;-76
2021/11/03 22:28:37;;;;;;;;;;;6.90;99.90;;;5.86;100.00;94184.84;10544282;28;2065;-73
2021/11/03 22:33:40;;;;;;;;;;;6.90;99.90;;;5.81;100.00;94171.53;10532675;28;1983;-75
2021/11/03 22:38:43;;;;;;;;;;;6.90;99.90;;;5.78;100.00;94173.97;10543904;28;1864;-75
2021/11/03 22:43:46;;;;;;;;;;;6.90;99.90;;;5.78;100.00;94169.44;10541641;28;2003;-74
2021/11/03 22:48:49;;;;;;;;;;;6.90;99.90;;;5.80;100.00;94161.97;10535005;28;2359;-74
2021/11/03 22:53:52;;;;;;;;;;;6.90;99.90;;;5.78;100.00;94153.44;10543737;28;1859;-74
2021/11/03 22:58:55;;;;;;;;;;;6.90;99.90;;;5.77;100.00;94143.06;10543630;28;1761;-74
2021/11/03 23:03:58;;;;;;;;;;;6.90;99.90;;;5.77;100.00;94138.50;10532367;28;2055;-74
2021/11/03 23:09:00;;;;;;;;;;;6.90;99.90;;;5.74;100.00;94149.75;10533261;28;1903;-74
2021/11/03 23:14:03;;;;;;;;;;;6.90;99.90;;;5.72;100.00;94140.44;10540908;28;1911;-76
2021/11/03 23:19:07;;;;;;;;;;;6.80;99.90;;;5.72;100.00;94130.56;10537325;28;1824;-74
2021/11/03 23:24:09;;;;;;;;;;;6.80;99.90;;;5.64;100.00;94129.31;10542316;28;1901;-76
2021/11/03 23:29:12;;;;;;;;;;;6.80;99.90;;;5.62;100.00;94126.16;10546143;28;1871;-75
2021/11/03 23:34:15;;;;;;;;;;;6.70;99.90;;;5.53;100.00;94106.50;10539006;28;1930;-74
2021/11/03 23:39:18;;;;;;;;;;;6.70;99.90;;;5.53;100.00;94089.72;10544668;28;1836;-75